sensor_id;sensor_type;location;lat;lon;timestamp;temperature;humidity
71304;DHT22;59091;47.446;19.148;2023-01-15T00:00:51;4.93;83.82
71304;DHT22;59091;47.446;19.148;2023-01-15T00:03:17;4.62;85.30
71304;DHT22;59091;47.446;19.148;2023-01-15T00:05:42;4.81;84.32
71304;DHT22;59091;47.446;19.148;2023-01-15T00:08:08;4.98;83.88
71304;DHT22;59091;47.446;19.148;2023-01-15T00:10:34;4.94;83.97
71304;DHT22;59091;47.446;19.148;2023-01-15T00:12:59;4.97;83.92
71304;DHT22;59091;47.446;19.148;2023-01-15T00:15:25;4.91;84.11
71304;DHT22;59091;47.446;19.148;2023-01-15T00:17:50;4.84;84.17
71304;DHT22;59091;47.446;19.148;2023-01-15T00:20:16;4.94;83.99
71304;DHT22;59091;47.446;19.148;2023-01-15T00:22:41;4.70;84.52
71304;DHT22;59091;47.446;19.148;2023-01-15T00:25:09;4.63;84.82
71304;DHT22;59091;47.446;19.148;2023-01-15T00:27:53;4.67;84.61
71304;DHT22;59091;47.446;19.148;2023-01-15T00:30:19;4.60;84.87
71304;DHT22;59091;47.446;19.148;2023-01-15T00:32:44;4.77;84.56
71304;DHT22;59091;47.446;19.148;2023-01-15T00:35:15;4.80;84.15
71304;DHT22;59091;47.446;19.148;2023-01-15T00:37:40;4.79;84.11
71304;DHT22;59091;47.446;19.148;2023-01-15T00:40:06;4.64;84.56
71304;DHT22;59091;47.446;19.148;2023-01-15T00:42:32;4.63;84.69
71304;DHT22;59091;47.446;19.148;2023-01-15T00:44:58;4.57;84.83
71304;DHT22;59091;47.446;19.148;2023-01-15T00:47:23;4.48;85.18
71304;DHT22;59091;47.446;19.148;2023-01-15T00:49:49;4.45;85.30
71304;DHT22;59091;47.446;19.148;2023-01-15T00:52:15;4.48;85.06
71304;DHT22;59091;47.446;19.148;2023-01-15T00:54:41;4.23;85.64
71304;DHT22;59091;47.446;19.148;2023-01-15T00:57:06;4.45;85.00
71304;DHT22;59091;47.446;19.148;2023-01-15T00:59:32;4.45;84.95
71304;DHT22;59091;47.446;19.148;2023-01-15T01:01:57;4.22;85.84
71304;DHT22;59091;47.446;19.148;2023-01-15T01:04:23;4.46;85.24
71304;DHT22;59091;47.446;19.148;2023-01-15T01:06:48;4.50;84.73
71304;DHT22;59091;47.446;19.148;2023-01-15T01:09:15;4.35;84.97
71304;DHT22;59091;47.446;19.148;2023-01-15T01:11:41;4.38;85.11
71304;DHT22;59091;47.446;19.148;2023-01-15T01:14:08;4.49;84.61
71304;DHT22;59091;47.446;19.148;2023-01-15T01:16:36;4.64;84.28
71304;DHT22;59091;47.446;19.148;2023-01-15T01:19:05;4.48;84.78
71304;DHT22;59091;47.446;19.148;2023-01-15T01:21:30;4.45;84.94
71304;DHT22;59091;47.446;19.148;2023-01-15T01:24:00;4.45;84.82
71304;DHT22;59091;47.446;19.148;2023-01-15T01:26:29;4.33;85.15
71304;DHT22;59091;47.446;19.148;2023-01-15T01:28:55;4.49;84.55
71304;DHT22;59091;47.446;19.148;2023-01-15T01:31:21;4.45;84.57
71304;DHT22;59091;47.446;19.148;2023-01-15T01:33:50;4.50;84.48
71304;DHT22;59091;47.446;19.148;2023-01-15T01:36:17;4.57;84.40
71304;DHT22;59091;47.446;19.148;2023-01-15T01:38:43;4.62;83.89
71304;DHT22;59091;47.446;19.148;2023-01-15T01:41:08;4.66;83.55
71304;DHT22;59091;47.446;19.148;2023-01-15T01:46:16;4.72;83.35
71304;DHT22;59091;47.446;19.148;2023-01-15T01:48:41;4.81;82.99
71304;DHT22;59091;47.446;19.148;2023-01-15T01:51:06;4.63;83.37
71304;DHT22;59091;47.446;19.148;2023-01-15T01:53:32;4.72;83.43
71304;DHT22;59091;47.446;19.148;2023-01-15T01:55:58;4.67;83.47
71304;DHT22;59091;47.446;19.148;2023-01-15T01:58:28;4.59;83.43
71304;DHT22;59091;47.446;19.148;2023-01-15T02:00:55;4.63;83.36
71304;DHT22;59091;47.446;19.148;2023-01-15T02:03:25;4.54;83.45
71304;DHT22;59091;47.446;19.148;2023-01-15T02:05:55;4.52;83.52
71304;DHT22;59091;47.446;19.148;2023-01-15T02:08:22;4.57;83.50
71304;DHT22;59091;47.446;19.148;2023-01-15T02:10:51;4.63;83.26
71304;DHT22;59091;47.446;19.148;2023-01-15T02:13:36;4.48;83.20
71304;DHT22;59091;47.446;19.148;2023-01-15T02:16:07;4.41;83.73
71304;DHT22;59091;47.446;19.148;2023-01-15T02:19:01;4.33;83.55
71304;DHT22;59091;47.446;19.148;2023-01-15T02:27:03;4.33;83.89
71304;DHT22;59091;47.446;19.148;2023-01-15T02:32:03;4.38;83.42
71304;DHT22;59091;47.446;19.148;2023-01-15T02:34:34;4.33;83.22
71304;DHT22;59091;47.446;19.148;2023-01-15T02:37:14;4.32;82.84
71304;DHT22;59091;47.446;19.148;2023-01-15T02:39:44;4.11;84.10
71304;DHT22;59091;47.446;19.148;2023-01-15T02:42:11;4.23;83.66
71304;DHT22;59091;47.446;19.148;2023-01-15T02:44:40;4.31;83.36
71304;DHT22;59091;47.446;19.148;2023-01-15T02:47:09;4.45;83.14
71304;DHT22;59091;47.446;19.148;2023-01-15T02:49:36;4.49;82.80
71304;DHT22;59091;47.446;19.148;2023-01-15T02:52:15;4.21;83.03
71304;DHT22;59091;47.446;19.148;2023-01-15T02:54:46;4.19;83.53
71304;DHT22;59091;47.446;19.148;2023-01-15T02:57:13;4.04;84.19
71304;DHT22;59091;47.446;19.148;2023-01-15T02:59:43;3.99;84.32
71304;DHT22;59091;47.446;19.148;2023-01-15T03:02:13;3.91;84.75
71304;DHT22;59091;47.446;19.148;2023-01-15T03:04:55;3.99;84.30
71304;DHT22;59091;47.446;19.148;2023-01-15T03:07:27;4.09;84.25
71304;DHT22;59091;47.446;19.148;2023-01-15T03:09:55;4.02;84.41
71304;DHT22;59091;47.446;19.148;2023-01-15T03:12:42;3.95;84.22
71304;DHT22;59091;47.446;19.148;2023-01-15T03:15:52;4.08;83.89
71304;DHT22;59091;47.446;19.148;2023-01-15T03:24:23;4.09;84.18
71304;DHT22;59091;47.446;19.148;2023-01-15T03:26:51;4.11;84.10
71304;DHT22;59091;47.446;19.148;2023-01-15T03:29:18;4.23;83.76
71304;DHT22;59091;47.446;19.148;2023-01-15T03:31:44;4.25;83.44
71304;DHT22;59091;47.446;19.148;2023-01-15T03:34:10;4.26;83.46
71304;DHT22;59091;47.446;19.148;2023-01-15T03:36:36;4.06;83.94
71304;DHT22;59091;47.446;19.148;2023-01-15T03:39:02;3.95;84.63
71304;DHT22;59091;47.446;19.148;2023-01-15T03:42:08;3.98;84.53
71304;DHT22;59091;47.446;19.148;2023-01-15T03:49:39;3.71;85.34
71304;DHT22;59091;47.446;19.148;2023-01-15T03:52:17;3.85;85.06
71304;DHT22;59091;47.446;19.148;2023-01-15T03:54:59;4.02;84.66
71304;DHT22;59091;47.446;19.148;2023-01-15T04:00:13;3.71;85.36
71304;DHT22;59091;47.446;19.148;2023-01-15T04:02:40;3.84;85.25
71304;DHT22;59091;47.446;19.148;2023-01-15T04:05:06;3.67;86.12
71304;DHT22;59091;47.446;19.148;2023-01-15T04:07:32;3.75;85.48
71304;DHT22;59091;47.446;19.148;2023-01-15T04:09:57;3.67;85.94
71304;DHT22;59091;47.446;19.148;2023-01-15T04:12:23;3.84;85.38
71304;DHT22;59091;47.446;19.148;2023-01-15T04:14:48;3.97;84.89
71304;DHT22;59091;47.446;19.148;2023-01-15T04:17:14;3.97;84.92
71304;DHT22;59091;47.446;19.148;2023-01-15T04:19:39;4.09;84.18
71304;DHT22;59091;47.446;19.148;2023-01-15T04:22:05;4.21;83.97
71304;DHT22;59091;47.446;19.148;2023-01-15T04:24:30;4.29;83.45
71304;DHT22;59091;47.446;19.148;2023-01-15T04:26:55;4.32;83.27
71304;DHT22;59091;47.446;19.148;2023-01-15T04:29:21;4.35;83.21
71304;DHT22;59091;47.446;19.148;2023-01-15T04:31:46;4.22;83.38
71304;DHT22;59091;47.446;19.148;2023-01-15T04:34:12;4.32;83.09
71304;DHT22;59091;47.446;19.148;2023-01-15T04:36:37;4.29;83.10
71304;DHT22;59091;47.446;19.148;2023-01-15T04:39:04;4.31;83.16
71304;DHT22;59091;47.446;19.148;2023-01-15T04:41:30;4.32;83.03
71304;DHT22;59091;47.446;19.148;2023-01-15T04:44:13;4.28;83.45
71304;DHT22;59091;47.446;19.148;2023-01-15T04:46:42;4.23;83.45
71304;DHT22;59091;47.446;19.148;2023-01-15T04:49:14;4.18;83.42
71304;DHT22;59091;47.446;19.148;2023-01-15T04:51:40;3.99;84.25
71304;DHT22;59091;47.446;19.148;2023-01-15T04:54:09;3.98;84.40
71304;DHT22;59091;47.446;19.148;2023-01-15T04:56:40;4.05;84.22
71304;DHT22;59091;47.446;19.148;2023-01-15T04:59:07;4.05;84.44
71304;DHT22;59091;47.446;19.148;2023-01-15T05:01:32;4.13;84.16
71304;DHT22;59091;47.446;19.148;2023-01-15T05:03:58;4.02;84.36
71304;DHT22;59091;47.446;19.148;2023-01-15T05:06:24;4.06;84.34
71304;DHT22;59091;47.446;19.148;2023-01-15T05:08:50;4.08;84.41
71304;DHT22;59091;47.446;19.148;2023-01-15T05:11:15;4.08;84.46
71304;DHT22;59091;47.446;19.148;2023-01-15T05:13:41;3.98;84.79
71304;DHT22;59091;47.446;19.148;2023-01-15T05:16:20;3.92;84.84
71304;DHT22;59091;47.446;19.148;2023-01-15T05:18:49;3.81;85.36
71304;DHT22;59091;47.446;19.148;2023-01-15T05:21:16;3.87;85.44
71304;DHT22;59091;47.446;19.148;2023-01-15T05:23:43;3.95;85.18
71304;DHT22;59091;47.446;19.148;2023-01-15T05:26:09;4.13;84.65
71304;DHT22;59091;47.446;19.148;2023-01-15T05:28:34;3.92;85.07
71304;DHT22;59091;47.446;19.148;2023-01-15T05:31:11;3.82;85.36
71304;DHT22;59091;47.446;19.148;2023-01-15T05:33:38;3.81;85.82
71304;DHT22;59091;47.446;19.148;2023-01-15T05:36:09;3.80;86.23
71304;DHT22;59091;47.446;19.148;2023-01-15T05:38:35;3.88;86.14
71304;DHT22;59091;47.446;19.148;2023-01-15T05:41:06;3.94;85.82
71304;DHT22;59091;47.446;19.148;2023-01-15T05:43:50;3.97;85.82
71304;DHT22;59091;47.446;19.148;2023-01-15T05:46:16;3.90;85.98
71304;DHT22;59091;47.446;19.148;2023-01-15T05:48:42;4.02;86.01
71304;DHT22;59091;47.446;19.148;2023-01-15T05:51:07;3.94;86.16
71304;DHT22;59091;47.446;19.148;2023-01-15T05:53:33;3.94;86.40
71304;DHT22;59091;47.446;19.148;2023-01-15T05:56:05;3.85;86.49
71304;DHT22;59091;47.446;19.148;2023-01-15T05:58:31;3.97;86.52
71304;DHT22;59091;47.446;19.148;2023-01-15T06:00:56;3.95;86.51
71304;DHT22;59091;47.446;19.148;2023-01-15T06:03:23;4.12;86.07
71304;DHT22;59091;47.446;19.148;2023-01-15T06:05:52;4.04;86.47
71304;DHT22;59091;47.446;19.148;2023-01-15T06:08:19;4.08;86.07
71304;DHT22;59091;47.446;19.148;2023-01-15T06:10:45;3.98;87.09
71304;DHT22;59091;47.446;19.148;2023-01-15T06:13:11;4.06;86.64
71304;DHT22;59091;47.446;19.148;2023-01-15T06:15:37;4.08;86.50
71304;DHT22;59091;47.446;19.148;2023-01-15T06:18:02;4.06;86.90
71304;DHT22;59091;47.446;19.148;2023-01-15T06:20:28;4.16;86.70
71304;DHT22;59091;47.446;19.148;2023-01-15T06:22:53;4.23;86.62
71304;DHT22;59091;47.446;19.148;2023-01-15T06:25:19;4.19;86.44
71304;DHT22;59091;47.446;19.148;2023-01-15T06:27:44;4.38;86.05
71304;DHT22;59091;47.446;19.148;2023-01-15T06:30:11;4.36;86.00
71304;DHT22;59091;47.446;19.148;2023-01-15T06:32:36;4.43;86.05
71304;DHT22;59091;47.446;19.148;2023-01-15T06:35:02;4.35;85.93
71304;DHT22;59091;47.446;19.148;2023-01-15T06:37:27;4.33;86.57
71304;DHT22;59091;47.446;19.148;2023-01-15T06:39:53;4.43;86.02
71304;DHT22;59091;47.446;19.148;2023-01-15T06:42:18;4.46;86.19
71304;DHT22;59091;47.446;19.148;2023-01-15T06:45:03;4.57;85.61
71304;DHT22;59091;47.446;19.148;2023-01-15T06:47:47;4.48;86.23
71304;DHT22;59091;47.446;19.148;2023-01-15T06:50:13;4.63;85.72
71304;DHT22;59091;47.446;19.148;2023-01-15T06:52:38;4.69;85.45
71304;DHT22;59091;47.446;19.148;2023-01-15T06:55:04;4.70;85.34
71304;DHT22;59091;47.446;19.148;2023-01-15T06:57:30;4.83;85.20
71304;DHT22;59091;47.446;19.148;2023-01-15T06:59:55;4.76;85.22
71304;DHT22;59091;47.446;19.148;2023-01-15T07:02:20;4.77;85.32
71304;DHT22;59091;47.446;19.148;2023-01-15T07:04:46;4.72;85.75
71304;DHT22;59091;47.446;19.148;2023-01-15T07:07:17;4.83;85.12
71304;DHT22;59091;47.446;19.148;2023-01-15T07:09:43;4.93;84.96
71304;DHT22;59091;47.446;19.148;2023-01-15T07:12:08;4.84;85.55
71304;DHT22;59091;47.446;19.148;2023-01-15T07:14:34;4.85;85.57
71304;DHT22;59091;47.446;19.148;2023-01-15T07:17:01;5.03;85.07
71304;DHT22;59091;47.446;19.148;2023-01-15T07:19:26;5.08;84.64
71304;DHT22;59091;47.446;19.148;2023-01-15T07:21:52;5.17;84.51
71304;DHT22;59091;47.446;19.148;2023-01-15T07:24:17;5.30;84.24
71304;DHT22;59091;47.446;19.148;2023-01-15T07:26:43;5.35;85.68
71304;DHT22;59091;47.446;19.148;2023-01-15T07:29:09;5.46;84.73
71304;DHT22;59091;47.446;19.148;2023-01-15T07:31:35;5.36;84.57
71304;DHT22;59091;47.446;19.148;2023-01-15T07:34:01;5.32;84.23
71304;DHT22;59091;47.446;19.148;2023-01-15T07:36:27;5.38;84.15
71304;DHT22;59091;47.446;19.148;2023-01-15T07:38:52;5.32;84.93
71304;DHT22;59091;47.446;19.148;2023-01-15T07:41:17;5.48;84.61
71304;DHT22;59091;47.446;19.148;2023-01-15T07:44:01;5.46;84.85
71304;DHT22;59091;47.446;19.148;2023-01-15T07:46:45;5.24;85.25
71304;DHT22;59091;47.446;19.148;2023-01-15T07:49:29;5.49;84.32
71304;DHT22;59091;47.446;19.148;2023-01-15T07:52:11;5.46;84.47
71304;DHT22;59091;47.446;19.148;2023-01-15T07:54:37;5.55;84.37
71304;DHT22;59091;47.446;19.148;2023-01-15T07:57:03;5.49;84.73
71304;DHT22;59091;47.446;19.148;2023-01-15T07:59:29;5.60;84.45
71304;DHT22;59091;47.446;19.148;2023-01-15T08:01:55;5.58;84.65
71304;DHT22;59091;47.446;19.148;2023-01-15T08:04:20;5.58;84.49
71304;DHT22;59091;47.446;19.148;2023-01-15T08:06:46;5.79;83.97
71304;DHT22;59091;47.446;19.148;2023-01-15T08:09:11;5.92;83.59
71304;DHT22;59091;47.446;19.148;2023-01-15T08:11:37;5.92;84.41
71304;DHT22;59091;47.446;19.148;2023-01-15T08:14:21;5.93;83.84
71304;DHT22;59091;47.446;19.148;2023-01-15T08:17:05;6.00;85.74
71304;DHT22;59091;47.446;19.148;2023-01-15T08:19:30;5.99;84.25
71304;DHT22;59091;47.446;19.148;2023-01-15T08:21:56;6.09;83.78
71304;DHT22;59091;47.446;19.148;2023-01-15T08:24:22;6.10;83.27
71304;DHT22;59091;47.446;19.148;2023-01-15T08:26:48;6.13;83.15
71304;DHT22;59091;47.446;19.148;2023-01-15T08:29:14;6.40;89.50
71304;DHT22;59091;47.446;19.148;2023-01-15T08:31:39;6.31;84.28
71304;DHT22;59091;47.446;19.148;2023-01-15T08:34:06;6.23;83.49
71304;DHT22;59091;47.446;19.148;2023-01-15T08:36:32;6.23;83.05
71304;DHT22;59091;47.446;19.148;2023-01-15T08:38:57;6.69;91.76
71304;DHT22;59091;47.446;19.148;2023-01-15T08:41:23;7.34;88.84
71304;DHT22;59091;47.446;19.148;2023-01-15T08:43:48;7.19;85.18
71304;DHT22;59091;47.446;19.148;2023-01-15T08:46:14;6.79;82.14
71304;DHT22;59091;47.446;19.148;2023-01-15T08:48:39;6.63;82.16
71304;DHT22;59091;47.446;19.148;2023-01-15T08:51:06;6.75;81.70
71304;DHT22;59091;47.446;19.148;2023-01-15T08:53:32;6.79;81.28
71304;DHT22;59091;47.446;19.148;2023-01-15T08:55:58;6.99;80.87
71304;DHT22;59091;47.446;19.148;2023-01-15T08:58:23;6.93;80.78
71304;DHT22;59091;47.446;19.148;2023-01-15T09:00:51;6.95;80.98
71304;DHT22;59091;47.446;19.148;2023-01-15T09:03:16;7.06;83.07
71304;DHT22;59091;47.446;19.148;2023-01-15T09:05:42;6.78;81.88
71304;DHT22;59091;47.446;19.148;2023-01-15T09:08:07;6.75;81.45
71304;DHT22;59091;47.446;19.148;2023-01-15T09:10:33;6.89;80.78
71304;DHT22;59091;47.446;19.148;2023-01-15T09:13:02;7.12;80.61
71304;DHT22;59091;47.446;19.148;2023-01-15T09:15:29;7.20;80.34
71304;DHT22;59091;47.446;19.148;2023-01-15T09:17:55;7.06;80.40
71304;DHT22;59091;47.446;19.148;2023-01-15T09:20:21;7.18;80.00
71304;DHT22;59091;47.446;19.148;2023-01-15T09:22:47;7.13;80.20
71304;DHT22;59091;47.446;19.148;2023-01-15T09:25:14;7.13;79.59
71304;DHT22;59091;47.446;19.148;2023-01-15T09:27:40;7.30;79.40
71304;DHT22;59091;47.446;19.148;2023-01-15T09:30:07;7.40;79.27
71304;DHT22;59091;47.446;19.148;2023-01-15T09:32:33;7.33;79.12
71304;DHT22;59091;47.446;19.148;2023-01-15T09:34:59;7.37;78.88
71304;DHT22;59091;47.446;19.148;2023-01-15T09:37:24;7.46;78.33
71304;DHT22;59091;47.446;19.148;2023-01-15T09:39:49;7.50;78.59
71304;DHT22;59091;47.446;19.148;2023-01-15T09:45:12;7.74;79.34
71304;DHT22;59091;47.446;19.148;2023-01-15T09:55:48;7.29;79.09
71304;DHT22;59091;47.446;19.148;2023-01-15T09:58:17;7.31;78.44
71304;DHT22;59091;47.446;19.148;2023-01-15T10:00:48;7.49;78.02
71304;DHT22;59091;47.446;19.148;2023-01-15T10:08:38;7.97;77.05
71304;DHT22;59091;47.446;19.148;2023-01-15T10:11:20;8.02;76.28
71304;DHT22;59091;47.446;19.148;2023-01-15T10:13:48;8.08;76.62
71304;DHT22;59091;47.446;19.148;2023-01-15T10:16:21;8.25;75.94
71304;DHT22;59091;47.446;19.148;2023-01-15T10:18:46;8.19;75.43
71304;DHT22;59091;47.446;19.148;2023-01-15T10:21:39;7.94;75.57
71304;DHT22;59091;47.446;19.148;2023-01-15T10:26:54;8.19;75.82
71304;DHT22;59091;47.446;19.148;2023-01-15T10:32:09;8.62;76.52
71304;DHT22;59091;47.446;19.148;2023-01-15T10:35:04;8.46;74.36
71304;DHT22;59091;47.446;19.148;2023-01-15T10:37:42;8.06;75.08
71304;DHT22;59091;47.446;19.148;2023-01-15T10:45:27;8.46;74.27
71304;DHT22;59091;47.446;19.148;2023-01-15T10:48:02;8.06;74.56
71304;DHT22;59091;47.446;19.148;2023-01-15T10:50:30;8.46;73.94
71304;DHT22;59091;47.446;19.148;2023-01-15T10:53:16;8.54;73.44
71304;DHT22;59091;47.446;19.148;2023-01-15T10:55:49;8.62;73.66
71304;DHT22;59091;47.446;19.148;2023-01-15T10:58:36;8.69;73.88
71304;DHT22;59091;47.446;19.148;2023-01-15T11:01:10;8.84;72.71
71304;DHT22;59091;47.446;19.148;2023-01-15T11:03:42;8.76;72.64
71304;DHT22;59091;47.446;19.148;2023-01-15T11:06:17;8.38;73.60
71304;DHT22;59091;47.446;19.148;2023-01-15T11:08:54;8.67;72.97
71304;DHT22;59091;47.446;19.148;2023-01-15T11:11:30;8.77;72.73
71304;DHT22;59091;47.446;19.148;2023-01-15T11:14:15;9.31;76.05
71304;DHT22;59091;47.446;19.148;2023-01-15T11:16:59;8.91;71.87
71304;DHT22;59091;47.446;19.148;2023-01-15T11:19:36;9.11;71.43
71304;DHT22;59091;47.446;19.148;2023-01-15T11:22:12;9.04;70.73
71304;DHT22;59091;47.446;19.148;2023-01-15T11:24:57;9.17;70.72
71304;DHT22;59091;47.446;19.148;2023-01-15T11:27:29;9.42;70.16
71304;DHT22;59091;47.446;19.148;2023-01-15T11:29:58;9.34;72.04
71304;DHT22;59091;47.446;19.148;2023-01-15T11:32:35;9.21;70.49
71304;DHT22;59091;47.446;19.148;2023-01-15T11:35:14;9.24;70.66
71304;DHT22;59091;47.446;19.148;2023-01-15T11:37:40;8.88;71.97
71304;DHT22;59091;47.446;19.148;2023-01-15T11:40:16;9.14;70.87
71304;DHT22;59091;47.446;19.148;2023-01-15T11:42:48;9.21;75.38
71304;DHT22;59091;47.446;19.148;2023-01-15T11:45:32;9.18;70.72
71304;DHT22;59091;47.446;19.148;2023-01-15T11:51:06;9.15;70.75
71304;DHT22;59091;47.446;19.148;2023-01-15T11:53:37;9.45;70.61
71304;DHT22;59091;47.446;19.148;2023-01-15T11:56:05;9.49;70.22
71304;DHT22;59091;47.446;19.148;2023-01-15T11:58:55;9.38;70.46
71304;DHT22;59091;47.446;19.148;2023-01-15T12:01:28;9.44;70.18
71304;DHT22;59091;47.446;19.148;2023-01-15T12:03:57;9.41;70.43
71304;DHT22;59091;47.446;19.148;2023-01-15T12:06:24;9.52;70.00
71304;DHT22;59091;47.446;19.148;2023-01-15T12:14:34;9.10;70.82
71304;DHT22;59091;47.446;19.148;2023-01-15T12:20:33;9.49;70.51
71304;DHT22;59091;47.446;19.148;2023-01-15T12:25:55;9.71;69.61
71304;DHT22;59091;47.446;19.148;2023-01-15T12:28:32;9.83;69.54
71304;DHT22;59091;47.446;19.148;2023-01-15T12:31:10;9.83;68.86
71304;DHT22;59091;47.446;19.148;2023-01-15T12:34:01;9.85;69.21
71304;DHT22;59091;47.446;19.148;2023-01-15T12:39:17;10.13;80.04
71304;DHT22;59091;47.446;19.148;2023-01-15T12:41:48;10.30;76.69
71304;DHT22;59091;47.446;19.148;2023-01-15T12:44:51;10.44;76.20
71304;DHT22;59091;47.446;19.148;2023-01-15T12:47:53;10.13;68.26
71304;DHT22;59091;47.446;19.148;2023-01-15T12:50:37;10.17;67.97
71304;DHT22;59091;47.446;19.148;2023-01-15T13:01:16;10.06;68.40
71304;DHT22;59091;47.446;19.148;2023-01-15T13:03:50;10.09;68.25
71304;DHT22;59091;47.446;19.148;2023-01-15T13:06:18;10.13;68.46
71304;DHT22;59091;47.446;19.148;2023-01-15T13:11:15;9.99;68.49
71304;DHT22;59091;47.446;19.148;2023-01-15T13:13:41;10.10;71.80
71304;DHT22;59091;47.446;19.148;2023-01-15T13:21:47;10.33;74.61
71304;DHT22;59091;47.446;19.148;2023-01-15T13:24:50;10.17;69.87
71304;DHT22;59091;47.446;19.148;2023-01-15T13:30:25;10.37;67.13
71304;DHT22;59091;47.446;19.148;2023-01-15T13:33:08;10.24;67.03
71304;DHT22;59091;47.446;19.148;2023-01-15T13:35:47;10.46;67.01
71304;DHT22;59091;47.446;19.148;2023-01-15T13:38:20;10.41;67.00
71304;DHT22;59091;47.446;19.148;2023-01-15T13:40:49;10.47;67.18
71304;DHT22;59091;47.446;19.148;2023-01-15T13:43:41;10.53;72.35
71304;DHT22;59091;47.446;19.148;2023-01-15T13:46:12;10.63;66.73
71304;DHT22;59091;47.446;19.148;2023-01-15T13:48:48;10.48;67.07
71304;DHT22;59091;47.446;19.148;2023-01-15T13:53:47;10.27;66.99
71304;DHT22;59091;47.446;19.148;2023-01-15T13:56:25;10.14;66.66
71304;DHT22;59091;47.446;19.148;2023-01-15T14:01:58;10.14;67.21
71304;DHT22;59091;47.446;19.148;2023-01-15T14:04:36;10.07;67.59
71304;DHT22;59091;47.446;19.148;2023-01-15T14:07:02;10.18;66.58
71304;DHT22;59091;47.446;19.148;2023-01-15T14:09:28;10.18;66.63
71304;DHT22;59091;47.446;19.148;2023-01-15T14:30:50;10.12;65.76
71304;DHT22;59091;47.446;19.148;2023-01-15T14:33:44;10.14;66.00
71304;DHT22;59091;47.446;19.148;2023-01-15T14:36:18;10.12;66.49
71304;DHT22;59091;47.446;19.148;2023-01-15T14:38:50;10.16;66.16
71304;DHT22;59091;47.446;19.148;2023-01-15T14:41:24;10.18;65.89
71304;DHT22;59091;47.446;19.148;2023-01-15T14:43:51;10.00;66.74
71304;DHT22;59091;47.446;19.148;2023-01-15T14:46:31;9.93;66.30
71304;DHT22;59091;47.446;19.148;2023-01-15T14:49:01;9.89;67.21
71304;DHT22;59091;47.446;19.148;2023-01-15T14:51:30;9.81;73.16
71304;DHT22;59091;47.446;19.148;2023-01-15T14:54:01;9.99;68.23
71304;DHT22;59091;47.446;19.148;2023-01-15T14:56:30;9.87;67.23
71304;DHT22;59091;47.446;19.148;2023-01-15T14:59:16;9.72;67.31
71304;DHT22;59091;47.446;19.148;2023-01-15T15:04:38;9.96;67.11
71304;DHT22;59091;47.446;19.148;2023-01-15T15:07:14;10.03;67.04
71304;DHT22;59091;47.446;19.148;2023-01-15T15:09:55;10.03;66.85
71304;DHT22;59091;47.446;19.148;2023-01-15T15:26:36;10.10;67.45
71304;DHT22;59091;47.446;19.148;2023-01-15T15:31:37;9.86;68.24
71304;DHT22;59091;47.446;19.148;2023-01-15T15:34:05;9.97;67.83
71304;DHT22;59091;47.446;19.148;2023-01-15T15:36:34;9.69;68.79
71304;DHT22;59091;47.446;19.148;2023-01-15T15:39:15;9.69;68.28
71304;DHT22;59091;47.446;19.148;2023-01-15T15:41:44;9.79;68.49
71304;DHT22;59091;47.446;19.148;2023-01-15T15:44:59;9.85;71.68
71304;DHT22;59091;47.446;19.148;2023-01-15T15:47:42;9.95;68.37
71304;DHT22;59091;47.446;19.148;2023-01-15T15:52:52;9.85;68.49
71304;DHT22;59091;47.446;19.148;2023-01-15T15:55:19;9.87;68.26
71304;DHT22;59091;47.446;19.148;2023-01-15T15:57:53;9.83;68.24
71304;DHT22;59091;47.446;19.148;2023-01-15T16:00:32;9.82;68.26
71304;DHT22;59091;47.446;19.148;2023-01-15T16:03:18;9.45;68.79
71304;DHT22;59091;47.446;19.148;2023-01-15T16:05:59;9.45;69.38
71304;DHT22;59091;47.446;19.148;2023-01-15T16:08:27;9.54;69.48
71304;DHT22;59091;47.446;19.148;2023-01-15T16:10:55;9.59;69.45
71304;DHT22;59091;47.446;19.148;2023-01-15T16:13:29;9.63;69.47
71304;DHT22;59091;47.446;19.148;2023-01-15T16:15:57;9.63;69.43
71304;DHT22;59091;47.446;19.148;2023-01-15T16:18:30;9.61;69.36
71304;DHT22;59091;47.446;19.148;2023-01-15T16:20:56;9.61;69.84
71304;DHT22;59091;47.446;19.148;2023-01-15T16:23:26;9.56;69.48
71304;DHT22;59091;47.446;19.148;2023-01-15T16:29:02;9.49;70.03
71304;DHT22;59091;47.446;19.148;2023-01-15T16:31:34;9.52;70.06
71304;DHT22;59091;47.446;19.148;2023-01-15T16:34:00;9.18;70.86
71304;DHT22;59091;47.446;19.148;2023-01-15T16:36:26;9.44;70.64
71304;DHT22;59091;47.446;19.148;2023-01-15T16:38:53;9.51;70.32
71304;DHT22;59091;47.446;19.148;2023-01-15T16:41:38;9.46;70.06
71304;DHT22;59091;47.446;19.148;2023-01-15T16:44:06;9.61;70.28
71304;DHT22;59091;47.446;19.148;2023-01-15T16:46:48;9.51;70.07
71304;DHT22;59091;47.446;19.148;2023-01-15T16:51:47;9.58;70.28
71304;DHT22;59091;47.446;19.148;2023-01-15T16:56:55;9.52;70.35
71304;DHT22;59091;47.446;19.148;2023-01-15T17:01:53;9.52;70.54
71304;DHT22;59091;47.446;19.148;2023-01-15T17:04:35;9.52;70.37
71304;DHT22;59091;47.446;19.148;2023-01-15T17:09:48;9.49;70.57
71304;DHT22;59091;47.446;19.148;2023-01-15T17:12:30;9.48;70.61
71304;DHT22;59091;47.446;19.148;2023-01-15T17:17:48;9.82;71.86
71304;DHT22;59091;47.446;19.148;2023-01-15T17:20:14;9.59;71.49
71304;DHT22;59091;47.446;19.148;2023-01-15T17:22:42;9.71;71.45
71304;DHT22;59091;47.446;19.148;2023-01-15T17:25:32;9.65;71.69
71304;DHT22;59091;47.446;19.148;2023-01-15T17:28:00;9.89;78.54
71304;DHT22;59091;47.446;19.148;2023-01-15T17:30:26;9.89;75.03
71304;DHT22;59091;47.446;19.148;2023-01-15T17:33:03;9.79;74.17
71304;DHT22;59091;47.446;19.148;2023-01-15T17:35:33;9.74;73.16
71304;DHT22;59091;47.446;19.148;2023-01-15T17:37:59;9.75;73.28
71304;DHT22;59091;47.446;19.148;2023-01-15T17:40:25;9.62;74.74
71304;DHT22;59091;47.446;19.148;2023-01-15T17:42:51;9.61;73.39
71304;DHT22;59091;47.446;19.148;2023-01-15T17:47:43;9.51;73.67
71304;DHT22;59091;47.446;19.148;2023-01-15T17:50:09;9.52;73.71
71304;DHT22;59091;47.446;19.148;2023-01-15T17:52:35;9.49;73.69
71304;DHT22;59091;47.446;19.148;2023-01-15T17:55:00;9.48;74.23
71304;DHT22;59091;47.446;19.148;2023-01-15T17:57:44;9.24;74.50
71304;DHT22;59091;47.446;19.148;2023-01-15T18:00:28;9.36;74.53
71304;DHT22;59091;47.446;19.148;2023-01-15T18:03:18;9.35;74.59
71304;DHT22;59091;47.446;19.148;2023-01-15T18:06:03;9.36;74.65
71304;DHT22;59091;47.446;19.148;2023-01-15T18:08:30;9.32;74.83
71304;DHT22;59091;47.446;19.148;2023-01-15T18:10:56;9.31;75.09
71304;DHT22;59091;47.446;19.148;2023-01-15T18:13:21;9.30;75.06
71304;DHT22;59091;47.446;19.148;2023-01-15T18:15:46;9.20;75.50
71304;DHT22;59091;47.446;19.148;2023-01-15T18:18:12;9.21;75.27
71304;DHT22;59091;47.446;19.148;2023-01-15T18:20:40;9.20;75.23
71304;DHT22;59091;47.446;19.148;2023-01-15T18:23:05;9.24;75.20
71304;DHT22;59091;47.446;19.148;2023-01-15T18:25:30;9.24;75.26